Portada
METAR-TAF:

METAR-TAF

Aeropuertos :

Aeropuerto de Reus

Reus, España

latitud: 41-09N, longitud: 001-10E, altitud: 71 m

Observación

El informe se hizo hace 32 minutos, a las 14:00 UTC
Viento 5 kt del sur-suroeste, variando entre este-sureste y oeste
Temperatura 27°C
Humedad 74%
Presión 1016 hPa
Visibilidad 10 km o más
Escasas nubes a una altura de 2000 ft

METAR: LERS 251400Z 20005KT 120V260 9999 FEW020 27/22 Q1016

Hora: 16:32 (14:32 UTC)

Pronóstico

El informe se hizo hace 6 horas y 32 minutos, a las 08:00 UTC
Pronóstico válido del 25 a las 09 UTC al 26 a las 09 UTC
Viento 3 kt con dirección variable
Visibilidad 10 km o más
Nubes dispersas a una altura de 2500 ft
Probabilidad 40% :
Temporalmente
del 25 a las 10 UTC al 25 a las 18 UTC
Escasas nubes a una altura de 4000 ft, Cumulonimbus.
tormenta, chaparrones de lluvia

TAF: LERS 250800Z 2509/2609 VRB03KT 9999 SCT025 TX28/2513Z TN16/2605Z PROB40 TEMPO 2510/2518 TS SHRA FEW040CB

Observaciones y pronósticos meteorológicos de más de 4000 aeropuertos (mensajes METAR y TAF).

Los puntos amarillos y rojos representan las estaciones disponibles.

Ponga el ratón en el punto deseado para ver el nombre de la estación.

Haga clic para ver las observaciones y los pronósticos meteorológicos.

Para cambiar el mapa : haga clic en los botones verdes con una cruz de color negro para hacer un zoom, en el botón verde con un guión para alejar o en las flechas verdes para mapas adyacentes.


METAR-TAF: